createdAt,value
2022-08-20T00:00:02.345Z,13.80
2022-08-20T00:00:39.725Z,12.47
2022-08-20T00:01:12.066Z,13.50
2022-08-20T00:01:44.503Z,14.17
2022-08-20T00:02:19.505Z,14.03
2022-08-20T00:02:54.401Z,13.87
2022-08-20T00:03:29.971Z,13.17
2022-08-20T00:04:04.946Z,13.63
2022-08-20T00:04:39.694Z,13.10
2022-08-20T00:05:12.989Z,14.03
2022-08-20T00:05:52.233Z,15.07
2022-08-20T00:06:29.119Z,13.63
2022-08-20T00:07:04.109Z,13.47
2022-08-20T00:07:39.158Z,14.37
2022-08-20T00:08:11.899Z,12.50
2022-08-20T00:08:44.721Z,13.00
2022-08-20T00:09:19.869Z,12.97
2022-08-20T00:09:52.204Z,13.80
2022-08-20T00:10:25.250Z,13.77
2022-08-20T00:11:01.153Z,13.17
2022-08-20T00:11:34.159Z,13.70
2022-08-20T00:12:06.910Z,14.00
2022-08-20T00:12:46.697Z,13.80
2022-08-20T00:13:22.931Z,13.60
2022-08-20T00:13:58.429Z,13.83
2022-08-20T00:14:34.064Z,13.30
2022-08-20T00:15:07.575Z,14.07
2022-08-20T00:15:40.042Z,13.47
2022-08-20T00:16:15.787Z,13.97
2022-08-20T00:16:48.101Z,13.83
2022-08-20T00:17:20.447Z,13.57
2022-08-20T00:17:55.901Z,13.37
2022-08-20T00:18:28.562Z,13.40
2022-08-20T00:19:02.121Z,13.07
2022-08-20T00:19:37.221Z,13.73
2022-08-20T00:20:12.154Z,14.70
2022-08-20T00:20:46.386Z,13.33
2022-08-20T00:21:23.358Z,13.20
2022-08-20T00:21:58.538Z,13.97
2022-08-20T00:22:36.230Z,13.23
2022-08-20T00:23:10.571Z,15.03
2022-08-20T00:23:45.795Z,13.23
2022-08-20T00:24:20.773Z,14.73
2022-08-20T00:24:53.098Z,14.23
2022-08-20T00:25:26.698Z,14.47
2022-08-20T00:26:01.641Z,14.80
2022-08-20T00:26:34.305Z,13.93
2022-08-20T00:27:06.741Z,13.93
2022-08-20T00:27:41.790Z,12.90
2022-08-20T00:28:14.921Z,14.40
2022-08-20T00:28:47.590Z,13.13
2022-08-20T00:29:22.634Z,13.23
2022-08-20T00:29:54.992Z,13.23
2022-08-20T00:30:27.870Z,13.60
2022-08-20T00:31:02.830Z,13.30
2022-08-20T00:31:35.237Z,14.67
2022-08-20T00:32:07.813Z,13.80
2022-08-20T00:32:47.225Z,13.10
2022-08-20T00:33:21.368Z,13.90
2022-08-20T00:33:56.516Z,13.37
2022-08-20T00:34:29.048Z,13.30
2022-08-20T00:35:01.396Z,14.37
2022-08-20T00:35:38.031Z,14.30
2022-08-20T00:36:12.353Z,13.07
2022-08-20T00:36:47.361Z,13.27
2022-08-20T00:37:19.712Z,12.40
2022-08-20T00:37:58.699Z,13.73
2022-08-20T00:38:36.670Z,13.03
2022-08-20T00:39:09.073Z,12.90
2022-08-20T00:39:41.499Z,12.47
2022-08-20T00:40:22.910Z,12.60
2022-08-20T00:40:58.119Z,12.23
2022-08-20T00:41:33.910Z,13.07
2022-08-20T00:42:06.591Z,12.40
2022-08-20T00:42:43.151Z,12.00
2022-08-20T00:43:36.679Z,13.40
2022-08-20T00:44:13.667Z,12.60
2022-08-20T00:44:49.786Z,12.90
2022-08-20T00:45:22.150Z,12.77
2022-08-20T00:45:57.420Z,12.93
2022-08-20T00:46:32.651Z,12.40
2022-08-20T00:47:05.365Z,12.27
2022-08-20T00:47:40.502Z,12.50
2022-08-20T00:48:26.357Z,12.87
2022-08-20T00:48:58.845Z,13.20
2022-08-20T00:49:35.158Z,13.97
2022-08-20T00:50:09.497Z,13.43
2022-08-20T00:50:41.831Z,12.20
2022-08-20T00:51:19.312Z,12.23
2022-08-20T00:51:58.457Z,12.53
2022-08-20T00:52:30.882Z,12.50
2022-08-20T00:53:07.730Z,13.00
2022-08-20T00:53:42.827Z,12.67
2022-08-20T00:54:18.209Z,12.60
2022-08-20T00:54:56.665Z,12.57
2022-08-20T00:55:31.702Z,12.57
2022-08-20T00:56:05.361Z,12.30
2022-08-20T00:56:43.073Z,13.03
2022-08-20T00:57:20.118Z,11.97
2022-08-20T00:58:01.348Z,11.93
2022-08-20T00:58:37.376Z,12.27
2022-08-20T00:59:11.998Z,12.40
2022-08-20T00:59:46.998Z,12.07
2022-08-20T01:00:23.124Z,11.63
2022-08-20T01:00:55.830Z,12.37
2022-08-20T01:01:34.624Z,11.23
2022-08-20T01:02:29.721Z,11.60
2022-08-20T01:03:04.886Z,11.43
2022-08-20T01:03:42.445Z,12.37
2022-08-20T01:04:14.785Z,12.10
2022-08-20T01:04:54.049Z,12.37
2022-08-20T01:05:29.538Z,12.20
2022-08-20T01:06:02.322Z,12.23
2022-08-20T01:06:34.686Z,12.97
2022-08-20T01:07:10.694Z,12.13
2022-08-20T01:07:45.105Z,11.70
2022-08-20T01:08:24.274Z,12.43
2022-08-20T01:08:56.663Z,11.80
2022-08-20T01:09:50.567Z,11.40
2022-08-20T01:10:28.209Z,11.43
2022-08-20T01:11:12.654Z,11.37
2022-08-20T01:11:45.004Z,11.00
2022-08-20T01:12:19.025Z,12.20
2022-08-20T01:12:55.612Z,12.17
2022-08-20T01:13:31.997Z,12.20
2022-08-20T01:14:22.313Z,12.40
2022-08-20T01:14:55.669Z,11.03
2022-08-20T01:15:32.901Z,11.33
2022-08-20T01:16:11.622Z,11.83
2022-08-20T01:16:47.413Z,12.27
2022-08-20T01:17:23.886Z,12.13
2022-08-20T01:17:58.730Z,11.13
2022-08-20T01:18:34.477Z,11.13
2022-08-20T01:19:29.444Z,11.87
2022-08-20T01:20:09.749Z,11.33
2022-08-20T01:20:45.046Z,10.47
2022-08-20T01:21:22.486Z,11.13
2022-08-20T01:21:55.049Z,11.53
2022-08-20T01:22:50.017Z,10.67
2022-08-20T01:23:36.863Z,10.80
2022-08-20T01:24:22.749Z,11.10
2022-08-20T01:24:58.111Z,10.57
2022-08-20T01:25:44.703Z,12.47
2022-08-20T01:26:20.402Z,10.63
2022-08-20T01:26:55.547Z,10.67
2022-08-20T01:27:28.062Z,11.17
2022-08-20T01:28:03.818Z,10.13
2022-08-20T01:28:39.732Z,10.30
2022-08-20T01:29:19.230Z,9.77
2022-08-20T01:29:52.175Z,10.43
2022-08-20T01:30:27.136Z,10.23
2022-08-20T01:31:02.186Z,9.87
2022-08-20T01:31:36.334Z,9.73
2022-08-20T01:32:08.717Z,10.83
2022-08-20T01:32:41.238Z,10.90
2022-08-20T01:33:16.178Z,11.10
2022-08-20T01:33:49.290Z,10.10
2022-08-20T01:34:24.746Z,10.10
2022-08-20T01:34:57.177Z,10.70
2022-08-20T01:35:30.090Z,10.37
2022-08-20T01:36:05.334Z,10.23
2022-08-20T01:36:45.574Z,10.60
2022-08-20T01:37:18.586Z,10.73
2022-08-20T01:37:51.026Z,10.37
2022-08-20T01:38:26.042Z,10.90
2022-08-20T01:38:58.979Z,10.07
2022-08-20T01:39:35.039Z,11.57
2022-08-20T01:40:09.337Z,10.40
2022-08-20T01:41:19.357Z,10.00
2022-08-20T01:42:08.058Z,10.47
2022-08-20T01:42:58.521Z,11.10
2022-08-20T01:43:32.220Z,10.73
2022-08-20T01:44:16.758Z,10.43
2022-08-20T01:44:50.934Z,11.00
2022-08-20T01:45:27.682Z,11.67
2022-08-20T01:46:04.662Z,11.20
2022-08-20T01:46:43.756Z,10.60
2022-08-20T01:47:22.521Z,11.33
2022-08-20T01:47:54.978Z,10.60
2022-08-20T01:48:27.653Z,10.37
2022-08-20T01:49:13.625Z,11.27
2022-08-20T01:49:52.383Z,11.00
2022-08-20T01:50:26.846Z,10.20
2022-08-20T01:51:07.715Z,10.30
2022-08-20T01:51:40.853Z,11.20
2022-08-20T01:52:17.654Z,11.17
2022-08-20T01:52:56.205Z,11.30
2022-08-20T01:53:33.642Z,10.97
2022-08-20T01:54:06.443Z,10.83
2022-08-20T01:54:41.421Z,10.90
2022-08-20T01:55:14.026Z,11.07
2022-08-20T01:55:46.594Z,10.50
2022-08-20T01:56:28.554Z,10.50
2022-08-20T01:57:04.978Z,11.30
2022-08-20T01:57:40.047Z,10.00
2022-08-20T01:58:15.147Z,10.63
2022-08-20T01:58:55.917Z,10.10
2022-08-20T01:59:31.405Z,11.00
2022-08-20T02:00:08.898Z,10.23
2022-08-20T02:00:50.460Z,10.90
2022-08-20T02:01:28.549Z,10.40
2022-08-20T02:02:02.676Z,10.10
2022-08-20T02:02:35.033Z,10.43
2022-08-20T02:03:10.046Z,10.53
2022-08-20T02:03:44.786Z,10.07
2022-08-20T02:04:18.168Z,11.53
2022-08-20T02:04:53.143Z,10.17
2022-08-20T02:05:30.328Z,10.13
2022-08-20T02:06:03.446Z,10.40
2022-08-20T02:06:41.042Z,10.17
2022-08-20T02:07:30.091Z,10.80
2022-08-20T02:08:05.868Z,10.33
2022-08-20T02:08:38.541Z,9.70
2022-08-20T02:09:15.626Z,10.07
2022-08-20T02:09:52.590Z,9.93
2022-08-20T02:10:25.309Z,9.87
2022-08-20T02:10:57.889Z,10.70
2022-08-20T02:11:36.171Z,9.37
2022-08-20T02:12:10.330Z,10.20
2022-08-20T02:12:42.757Z,10.43
2022-08-20T02:13:18.148Z,9.73
2022-08-20T02:13:52.764Z,10.23
2022-08-20T02:14:25.356Z,9.70
2022-08-20T02:15:00.670Z,10.07
2022-08-20T02:15:37.151Z,9.90
2022-08-20T02:16:12.629Z,9.87
2022-08-20T02:16:55.033Z,9.77
2022-08-20T02:17:28.214Z,10.27
2022-08-20T02:18:03.189Z,10.60
2022-08-20T02:18:35.990Z,10.50
2022-08-20T02:19:13.453Z,9.90
2022-08-20T02:19:47.604Z,10.70
2022-08-20T02:20:24.966Z,9.90
2022-08-20T02:20:59.934Z,9.50
2022-08-20T02:21:33.991Z,9.63
2022-08-20T02:22:24.450Z,9.63
2022-08-20T02:23:01.978Z,9.73
2022-08-20T02:23:34.557Z,9.00
2022-08-20T02:24:07.403Z,11.03
2022-08-20T02:24:44.356Z,10.30
2022-08-20T02:25:17.214Z,9.67
2022-08-20T02:25:49.573Z,9.77
2022-08-20T02:26:22.577Z,10.20
2022-08-20T02:27:00.410Z,9.70
2022-08-20T02:27:32.886Z,10.47
2022-08-20T02:28:09.890Z,9.73
2022-08-20T02:28:45.258Z,10.13
2022-08-20T02:29:36.344Z,10.10
2022-08-20T02:30:33.335Z,9.33
2022-08-20T02:31:25.202Z,9.30
2022-08-20T02:32:32.519Z,10.37
2022-08-20T02:33:27.036Z,10.30
2022-08-20T02:34:23.096Z,9.80
2022-08-20T02:35:16.047Z,10.00
2022-08-20T02:36:12.497Z,9.87
2022-08-20T02:37:07.185Z,10.43
2022-08-20T02:38:02.791Z,10.57
2022-08-20T02:38:55.478Z,9.90
2022-08-20T02:39:50.870Z,10.40
2022-08-20T02:40:44.578Z,9.53
2022-08-20T02:41:29.781Z,9.87
2022-08-20T02:42:05.347Z,10.80
2022-08-20T02:42:43.466Z,10.43
2022-08-20T02:43:21.482Z,9.43
2022-08-20T02:43:53.829Z,10.60
2022-08-20T02:44:26.166Z,9.80
2022-08-20T02:45:01.109Z,10.30
2022-08-20T02:45:37.496Z,9.27
2022-08-20T02:46:10.177Z,10.90
2022-08-20T02:46:45.074Z,10.23
2022-08-20T02:47:17.474Z,10.20
2022-08-20T02:47:52.645Z,9.70
2022-08-20T02:48:28.238Z,9.73
2022-08-20T02:49:00.862Z,10.20
2022-08-20T02:49:33.345Z,10.40
2022-08-20T02:50:10.594Z,9.47
2022-08-20T02:50:44.391Z,9.80
2022-08-20T02:51:16.759Z,10.03
2022-08-20T02:52:02.710Z,9.10
2022-08-20T02:52:35.054Z,9.30
2022-08-20T02:53:07.725Z,8.97
2022-08-20T02:53:44.157Z,9.87
2022-08-20T02:54:17.458Z,10.30
2022-08-20T02:54:50.399Z,9.60
2022-08-20T02:55:28.231Z,9.10
2022-08-20T02:56:01.170Z,9.37
2022-08-20T02:56:36.575Z,9.33
2022-08-20T02:57:15.736Z,8.97
2022-08-20T02:57:48.033Z,10.47
2022-08-20T02:58:25.937Z,9.67
2022-08-20T02:58:58.294Z,9.97
2022-08-20T02:59:30.590Z,9.60
2022-08-20T03:00:06.930Z,9.30
2022-08-20T03:00:39.546Z,9.50
2022-08-20T03:01:14.675Z,9.53
2022-08-20T03:02:00.554Z,9.27
2022-08-20T03:02:35.322Z,9.10
2022-08-20T03:03:08.372Z,9.83
2022-08-20T03:03:44.465Z,9.53
2022-08-20T03:04:16.883Z,9.43
2022-08-20T03:04:49.542Z,9.43
2022-08-20T03:05:24.513Z,9.50
2022-08-20T03:05:58.884Z,9.93
2022-08-20T03:06:31.574Z,9.07
2022-08-20T03:07:07.871Z,9.00
2022-08-20T03:07:43.646Z,8.80
2022-08-20T03:08:17.037Z,9.40
2022-08-20T03:08:51.989Z,9.70
2022-08-20T03:09:24.565Z,8.83
2022-08-20T03:09:56.937Z,9.50
2022-08-20T03:10:34.433Z,9.00
2022-08-20T03:11:07.321Z,9.77
2022-08-20T03:11:42.414Z,9.90
2022-08-20T03:12:17.419Z,10.07
2022-08-20T03:12:49.726Z,9.13
2022-08-20T03:13:23.322Z,9.83
2022-08-20T03:14:01.385Z,8.63
2022-08-20T03:14:34.175Z,9.23
2022-08-20T03:15:17.519Z,10.47
2022-08-20T03:15:58.791Z,9.73
2022-08-20T03:16:31.528Z,9.10
2022-08-20T03:17:04.487Z,9.60
2022-08-20T03:17:40.071Z,9.20
2022-08-20T03:18:12.617Z,9.17
2022-08-20T03:18:46.479Z,9.17
2022-08-20T03:19:21.530Z,9.77
2022-08-20T03:19:55.295Z,8.77
2022-08-20T03:20:28.777Z,9.10
2022-08-20T03:21:09.922Z,9.03
2022-08-20T03:21:42.515Z,9.07
2022-08-20T03:22:23.613Z,9.10
2022-08-20T03:23:00.245Z,9.60
2022-08-20T03:23:32.868Z,9.70
2022-08-20T03:24:07.558Z,9.37
2022-08-20T03:24:42.488Z,9.50
2022-08-20T03:25:16.535Z,9.23
2022-08-20T03:25:51.698Z,8.37
2022-08-20T03:26:26.652Z,8.90
2022-08-20T03:26:59.150Z,8.73
2022-08-20T03:27:36.157Z,10.10
2022-08-20T03:28:12.457Z,10.30
2022-08-20T03:28:47.282Z,9.30
2022-08-20T03:29:21.673Z,9.23
2022-08-20T03:29:56.681Z,9.30
2022-08-20T03:30:31.464Z,10.30
2022-08-20T03:31:07.155Z,8.70
2022-08-20T03:31:40.719Z,9.60
2022-08-20T03:32:13.616Z,8.93
2022-08-20T03:32:50.504Z,9.33
2022-08-20T03:33:25.092Z,8.43
2022-08-20T03:34:01.881Z,9.27
2022-08-20T03:34:40.010Z,8.30
2022-08-20T03:35:16.913Z,9.00
2022-08-20T03:35:52.425Z,9.33
2022-08-20T03:36:29.218Z,9.07
2022-08-20T03:37:04.531Z,9.67
2022-08-20T03:37:39.650Z,9.10
2022-08-20T03:38:32.467Z,9.03
2022-08-20T03:39:07.550Z,9.13
2022-08-20T03:39:42.654Z,8.80
2022-08-20T03:40:18.045Z,9.60
2022-08-20T03:40:50.913Z,8.97
2022-08-20T03:41:26.386Z,9.00
2022-08-20T03:41:58.757Z,9.67
2022-08-20T03:42:31.338Z,9.37
2022-08-20T03:43:10.377Z,9.20
2022-08-20T03:43:42.910Z,8.53
2022-08-20T03:44:15.285Z,8.60
2022-08-20T03:44:59.056Z,8.50
2022-08-20T03:45:32.685Z,9.50
2022-08-20T03:46:05.386Z,8.63
2022-08-20T03:46:59.371Z,8.60
2022-08-20T03:47:32.061Z,8.37
2022-08-20T03:48:11.778Z,8.40
2022-08-20T03:48:49.718Z,8.93
2022-08-20T03:49:26.775Z,8.13
2022-08-20T03:49:59.524Z,8.30
2022-08-20T03:50:37.335Z,8.57
2022-08-20T03:51:11.509Z,8.77
2022-08-20T03:51:56.250Z,9.17
2022-08-20T03:52:33.358Z,9.00
2022-08-20T03:53:05.678Z,8.13
2022-08-20T03:53:40.855Z,8.37
2022-08-20T03:54:13.202Z,9.47
2022-08-20T03:54:46.158Z,8.90
2022-08-20T03:55:27.084Z,8.93
2022-08-20T03:56:02.486Z,8.57
2022-08-20T03:56:34.850Z,8.90
2022-08-20T03:57:12.803Z,8.00
2022-08-20T03:57:47.197Z,8.83
2022-08-20T03:58:33.256Z,8.73
2022-08-20T03:59:11.137Z,8.73
2022-08-20T03:59:44.668Z,8.23
2022-08-20T04:00:20.869Z,8.40
2022-08-20T04:00:56.251Z,8.63
2022-08-20T04:01:37.203Z,8.20
2022-08-20T04:02:19.689Z,7.60
2022-08-20T04:02:58.494Z,8.43
2022-08-20T04:03:33.588Z,8.50
2022-08-20T04:04:12.141Z,7.70
2022-08-20T04:04:51.189Z,8.10
2022-08-20T04:05:24.721Z,7.77
2022-08-20T04:06:03.065Z,8.17
2022-08-20T04:06:35.425Z,8.27
2022-08-20T04:07:14.918Z,7.93
2022-08-20T04:07:50.896Z,8.17
2022-08-20T04:08:26.824Z,9.10
2022-08-20T04:08:59.349Z,7.93
2022-08-20T04:09:34.282Z,8.10
2022-08-20T04:10:10.169Z,7.87
2022-08-20T04:10:47.339Z,8.00
2022-08-20T04:11:19.757Z,7.70
2022-08-20T04:11:54.370Z,7.70
2022-08-20T04:12:29.689Z,7.40
2022-08-20T04:13:03.571Z,8.10
2022-08-20T04:13:41.939Z,6.97
2022-08-20T04:14:20.571Z,7.40
2022-08-20T04:14:53.193Z,7.90
2022-08-20T04:15:25.638Z,7.60
2022-08-20T04:16:02.299Z,7.60
2022-08-20T04:16:38.646Z,7.73
2022-08-20T04:17:13.926Z,7.67
2022-08-20T04:17:54.297Z,7.80
2022-08-20T04:18:26.853Z,7.43
2022-08-20T04:19:02.535Z,7.77
2022-08-20T04:19:39.402Z,7.20
2022-08-20T04:20:13.674Z,7.70
2022-08-20T04:20:45.997Z,7.40
2022-08-20T04:21:23.895Z,7.10
2022-08-20T04:22:02.451Z,7.50
2022-08-20T04:22:34.777Z,7.13
2022-08-20T04:23:09.821Z,7.70
2022-08-20T04:23:43.113Z,7.30
2022-08-20T04:24:24.467Z,7.43
2022-08-20T04:25:09.030Z,7.50
2022-08-20T04:25:43.378Z,7.57
2022-08-20T04:26:16.457Z,7.53
2022-08-20T04:26:51.464Z,7.27
2022-08-20T04:27:23.806Z,7.80
2022-08-20T04:27:58.957Z,7.97
2022-08-20T04:28:31.479Z,7.40
2022-08-20T04:29:06.556Z,7.53
2022-08-20T04:29:44.861Z,7.93
2022-08-20T04:30:19.601Z,7.30
2022-08-20T04:30:52.666Z,7.70
2022-08-20T04:31:34.042Z,8.13
2022-08-20T04:32:07.333Z,7.00
2022-08-20T04:32:41.433Z,7.57
2022-08-20T04:33:16.541Z,7.20
2022-08-20T04:33:55.013Z,7.37
2022-08-20T04:34:29.418Z,8.10
2022-08-20T04:35:04.359Z,7.27
2022-08-20T04:35:37.026Z,7.17
2022-08-20T04:36:12.226Z,6.83
2022-08-20T04:36:44.643Z,7.60
2022-08-20T04:37:21.726Z,7.60
2022-08-20T04:37:59.933Z,7.10
2022-08-20T04:38:50.045Z,6.73
2022-08-20T04:39:23.876Z,7.17
2022-08-20T04:40:11.279Z,7.17
2022-08-20T04:40:58.865Z,7.07
2022-08-20T04:41:31.202Z,7.47
2022-08-20T04:42:03.645Z,7.37
2022-08-20T04:42:37.450Z,7.43
2022-08-20T04:43:14.353Z,7.07
2022-08-20T04:43:48.541Z,7.50
2022-08-20T04:44:23.482Z,6.73
2022-08-20T04:44:58.438Z,7.63
2022-08-20T04:45:31.938Z,7.10
2022-08-20T04:46:09.205Z,7.37
2022-08-20T04:46:46.322Z,6.70
2022-08-20T04:47:25.369Z,7.07
2022-08-20T04:48:11.648Z,6.23
2022-08-20T04:48:48.793Z,7.33
2022-08-20T04:49:25.197Z,6.43
2022-08-20T04:50:00.237Z,7.00
2022-08-20T04:50:38.090Z,6.73
2022-08-20T04:51:11.515Z,7.20
2022-08-20T04:51:46.898Z,6.50
2022-08-20T04:52:19.254Z,7.37
2022-08-20T04:52:51.594Z,7.27
2022-08-20T04:53:29.254Z,6.70
2022-08-20T04:54:03.249Z,6.90
2022-08-20T04:54:35.775Z,6.70
2022-08-20T04:55:11.833Z,7.03
2022-08-20T04:55:46.136Z,6.53
2022-08-20T04:56:19.893Z,6.70
2022-08-20T04:56:54.917Z,6.77
2022-08-20T04:57:27.310Z,6.40
2022-08-20T04:58:04.278Z,6.80
2022-08-20T04:58:47.672Z,7.37
2022-08-20T04:59:22.645Z,6.83
2022-08-20T04:59:59.279Z,7.00
2022-08-20T05:00:34.661Z,7.00
2022-08-20T05:01:08.756Z,6.80
2022-08-20T05:01:43.718Z,7.10
2022-08-20T05:02:19.112Z,7.50
2022-08-20T05:02:51.503Z,6.63
2022-08-20T05:03:27.174Z,6.70
2022-08-20T05:04:00.114Z,6.93
2022-08-20T05:04:32.396Z,7.13
2022-08-20T05:05:08.927Z,6.33
2022-08-20T05:05:41.330Z,6.80
2022-08-20T05:06:13.830Z,7.17
2022-08-20T05:06:49.656Z,6.77
2022-08-20T05:07:22.048Z,6.33
2022-08-20T05:07:55.578Z,6.50
2022-08-20T05:08:32.275Z,7.07
2022-08-20T05:09:05.795Z,6.70
2022-08-20T05:09:43.794Z,7.30
2022-08-20T05:10:20.754Z,6.80
2022-08-20T05:11:32.757Z,6.50
2022-08-20T05:11:49.286Z,6.57
2022-08-20T05:12:21.739Z,7.00
2022-08-20T05:12:56.892Z,6.87
2022-08-20T05:13:32.499Z,6.70
2022-08-20T05:14:08.048Z,7.47
2022-08-20T05:14:43.198Z,7.30
2022-08-20T05:15:18.170Z,6.70
2022-08-20T05:15:51.229Z,6.50
2022-08-20T05:16:24.731Z,7.30
2022-08-20T05:17:00.354Z,7.50
2022-08-20T05:17:32.722Z,6.80
2022-08-20T05:18:07.823Z,7.00
2022-08-20T05:18:44.358Z,7.20
2022-08-20T05:19:22.867Z,6.80
2022-08-20T05:19:55.324Z,6.77
2022-08-20T05:20:31.394Z,6.23
2022-08-20T05:21:06.052Z,6.50
2022-08-20T05:21:38.772Z,6.60
2022-08-20T05:22:13.713Z,6.70
2022-08-20T05:22:46.118Z,6.77
2022-08-20T05:23:19.853Z,6.40
2022-08-20T05:23:54.775Z,6.40
2022-08-20T05:24:27.052Z,6.53
2022-08-20T05:25:01.897Z,6.63
2022-08-20T05:25:37.337Z,7.10
2022-08-20T05:26:10.549Z,6.13
2022-08-20T05:26:43.198Z,6.83
2022-08-20T05:27:25.003Z,6.73
2022-08-20T05:28:00.682Z,6.83
2022-08-20T05:28:35.506Z,6.30
2022-08-20T05:29:28.142Z,6.27
2022-08-20T05:30:07.361Z,7.00
2022-08-20T05:30:48.003Z,6.67
2022-08-20T05:31:21.575Z,6.10
2022-08-20T05:31:56.898Z,6.30
2022-08-20T05:32:30.365Z,6.67
2022-08-20T05:33:04.066Z,6.47
2022-08-20T05:33:40.358Z,5.93
2022-08-20T05:34:13.039Z,6.77
2022-08-20T05:34:45.941Z,5.93
2022-08-20T05:35:21.109Z,5.43
2022-08-20T05:35:54.573Z,6.67
2022-08-20T05:36:27.106Z,6.93
2022-08-20T05:37:03.842Z,6.63
2022-08-20T05:37:41.390Z,6.00
2022-08-20T05:38:18.391Z,5.13
2022-08-20T05:38:53.974Z,6.00
2022-08-20T05:39:26.385Z,6.10
2022-08-20T05:39:58.758Z,5.97
2022-08-20T05:40:34.383Z,6.30
2022-08-20T05:41:06.729Z,6.20
2022-08-20T05:41:42.404Z,5.60
2022-08-20T05:42:14.730Z,5.60
2022-08-20T05:42:47.146Z,5.63
2022-08-20T05:43:22.106Z,5.83
2022-08-20T05:43:54.385Z,6.00
2022-08-20T05:44:26.718Z,5.77
2022-08-20T05:45:01.815Z,6.50
2022-08-20T05:45:39.070Z,5.20
2022-08-20T05:46:11.418Z,6.00
2022-08-20T05:46:47.638Z,5.57
2022-08-20T05:47:20.059Z,5.90
2022-08-20T05:47:56.660Z,6.23
2022-08-20T05:48:35.652Z,5.83
2022-08-20T05:49:08.281Z,5.60
2022-08-20T05:49:41.042Z,5.57
2022-08-20T05:50:20.735Z,5.93
2022-08-20T05:50:56.557Z,6.23
2022-08-20T05:51:32.493Z,5.77
2022-08-20T05:52:05.474Z,5.73
2022-08-20T05:52:37.894Z,5.90
2022-08-20T05:53:12.926Z,5.10
2022-08-20T05:53:45.274Z,5.80
2022-08-20T05:54:20.196Z,5.57
2022-08-20T05:54:55.629Z,5.60
2022-08-20T05:55:31.383Z,5.10
2022-08-20T05:56:04.685Z,5.20
2022-08-20T05:56:39.776Z,5.60
2022-08-20T05:57:14.073Z,6.13
2022-08-20T05:57:46.395Z,5.40
2022-08-20T05:58:22.883Z,5.40
2022-08-20T05:58:55.251Z,5.70
2022-08-20T05:59:27.746Z,5.53
2022-08-20T06:00:02.952Z,5.63
2022-08-20T06:00:47.229Z,5.47
2022-08-20T06:01:19.693Z,5.17
2022-08-20T06:01:55.258Z,5.90
2022-08-20T06:02:42.593Z,5.37
2022-08-20T06:03:29.930Z,5.30
2022-08-20T06:04:17.507Z,5.50
2022-08-20T06:04:55.037Z,4.87
2022-08-20T06:05:28.804Z,5.47
2022-08-20T06:06:04.490Z,5.67
2022-08-20T06:06:51.922Z,5.20
2022-08-20T06:07:26.927Z,5.30
2022-08-20T06:08:07.094Z,5.47
2022-08-20T06:08:40.486Z,4.73
2022-08-20T06:09:15.474Z,5.07
2022-08-20T06:09:48.814Z,5.47
2022-08-20T06:10:23.793Z,5.43
2022-08-20T06:10:56.194Z,5.30
2022-08-20T06:11:28.498Z,5.23
2022-08-20T06:12:04.558Z,5.20
2022-08-20T06:12:37.652Z,5.30
2022-08-20T06:13:10.375Z,5.17
2022-08-20T06:13:48.979Z,5.17
2022-08-20T06:14:22.058Z,5.23
2022-08-20T06:14:56.985Z,4.90
2022-08-20T06:15:29.422Z,5.53
2022-08-20T06:16:06.930Z,5.47
2022-08-20T06:16:57.469Z,5.20
2022-08-20T06:17:39.432Z,5.03
2022-08-20T06:18:27.350Z,4.93
2022-08-20T06:19:02.835Z,5.50
2022-08-20T06:19:38.836Z,4.90
2022-08-20T06:20:12.197Z,5.13
2022-08-20T06:20:46.598Z,5.33
2022-08-20T06:21:21.555Z,5.53
2022-08-20T06:21:53.948Z,5.07
2022-08-20T06:22:26.515Z,5.47
2022-08-20T06:23:03.269Z,5.23
2022-08-20T06:23:56.513Z,5.60
2022-08-20T06:24:30.683Z,5.47
2022-08-20T06:25:03.453Z,5.73
2022-08-20T06:25:38.056Z,5.30
2022-08-20T06:26:13.050Z,5.27
2022-08-20T06:26:45.373Z,5.37
2022-08-20T06:27:20.699Z,5.50
2022-08-20T06:27:53.126Z,5.10
2022-08-20T06:28:25.477Z,5.20
2022-08-20T06:29:00.478Z,5.63
2022-08-20T06:29:33.526Z,5.43
2022-08-20T06:30:10.331Z,5.40
2022-08-20T06:30:42.662Z,6.40
2022-08-20T06:31:22.010Z,5.30
2022-08-20T06:31:54.426Z,5.80
2022-08-20T06:32:29.784Z,5.57
2022-08-20T06:33:07.700Z,5.10
2022-08-20T06:33:40.019Z,5.47
2022-08-20T06:34:12.342Z,5.10
2022-08-20T06:34:49.735Z,5.23
2022-08-20T06:35:23.799Z,5.13
2022-08-20T06:35:59.295Z,5.43
2022-08-20T06:36:31.653Z,5.23
2022-08-20T06:37:14.591Z,5.43
2022-08-20T06:37:50.230Z,5.10
2022-08-20T06:38:23.275Z,5.33
2022-08-20T06:38:56.301Z,5.30
2022-08-20T06:39:31.625Z,4.93
2022-08-20T06:40:07.798Z,5.30
2022-08-20T06:40:42.902Z,5.47
2022-08-20T06:41:15.334Z,5.70
2022-08-20T06:41:47.678Z,4.83
2022-08-20T06:42:23.998Z,5.70
2022-08-20T06:42:56.709Z,4.67
2022-08-20T06:43:29.132Z,4.50
2022-08-20T06:44:04.086Z,5.10
2022-08-20T06:44:36.996Z,4.80
2022-08-20T06:45:10.554Z,5.50
2022-08-20T06:45:45.607Z,5.50
2022-08-20T06:46:21.683Z,5.33
2022-08-20T06:46:55.256Z,5.57
2022-08-20T06:47:31.409Z,4.87
2022-08-20T06:48:08.820Z,5.77
2022-08-20T06:48:44.188Z,5.50
2022-08-20T06:49:16.514Z,4.97
2022-08-20T06:49:49.362Z,5.27
2022-08-20T06:50:26.361Z,4.93
2022-08-20T06:50:58.846Z,5.00
2022-08-20T06:51:31.188Z,5.30
2022-08-20T06:52:07.234Z,4.87
2022-08-20T06:52:52.032Z,5.47
2022-08-20T06:53:29.148Z,4.93
2022-08-20T06:54:01.625Z,4.80
2022-08-20T06:54:34.482Z,4.80
2022-08-20T06:55:11.787Z,4.90
2022-08-20T06:55:48.489Z,4.93
2022-08-20T06:56:21.045Z,5.17
2022-08-20T06:56:56.153Z,4.87
2022-08-20T06:57:28.462Z,5.23
2022-08-20T06:58:02.677Z,5.00
2022-08-20T06:58:38.912Z,4.90
2022-08-20T06:59:11.299Z,5.33
2022-08-20T06:59:43.669Z,4.30
2022-08-20T07:00:23.890Z,4.67
2022-08-20T07:00:56.261Z,4.83
2022-08-20T07:01:31.302Z,4.97
2022-08-20T07:02:06.367Z,5.33
2022-08-20T07:02:38.698Z,5.20
2022-08-20T07:03:11.861Z,5.20
2022-08-20T07:03:55.298Z,4.93
2022-08-20T07:04:28.369Z,4.73
2022-08-20T07:05:03.327Z,4.50
2022-08-20T07:05:38.349Z,4.90
2022-08-20T07:06:13.285Z,4.57
2022-08-20T07:06:46.226Z,5.00
2022-08-20T07:07:19.854Z,5.43
2022-08-20T07:07:54.734Z,4.67
2022-08-20T07:08:27.038Z,4.87
2022-08-20T07:08:59.356Z,5.33
2022-08-20T07:09:34.515Z,5.00
2022-08-20T07:10:10.330Z,5.13
2022-08-20T07:10:43.294Z,5.10
2022-08-20T07:11:18.254Z,4.50
2022-08-20T07:11:50.879Z,4.50
2022-08-20T07:12:23.218Z,4.90
2022-08-20T07:12:59.387Z,5.20
2022-08-20T07:13:31.762Z,4.80
2022-08-20T07:14:05.537Z,4.53
2022-08-20T07:14:40.527Z,4.73
2022-08-20T07:15:14.106Z,4.90
2022-08-20T07:15:50.066Z,5.17
2022-08-20T07:16:26.486Z,4.77
2022-08-20T07:17:05.423Z,4.57
2022-08-20T07:17:48.450Z,4.70
2022-08-20T07:18:28.445Z,5.00
2022-08-20T07:19:01.463Z,4.97
2022-08-20T07:19:33.828Z,4.60
2022-08-20T07:20:10.004Z,4.80
2022-08-20T07:20:43.053Z,4.40
2022-08-20T07:21:18.045Z,4.40
2022-08-20T07:21:50.807Z,4.60
2022-08-20T07:22:24.882Z,5.47
2022-08-20T07:23:00.695Z,4.30
2022-08-20T07:23:33.314Z,4.70
2022-08-20T07:24:09.789Z,4.47
2022-08-20T07:24:44.948Z,3.73
2022-08-20T07:25:25.082Z,4.40
2022-08-20T07:25:57.619Z,4.10
2022-08-20T07:26:32.573Z,4.00
2022-08-20T07:27:05.406Z,3.80
2022-08-20T07:27:40.278Z,3.70
2022-08-20T07:28:15.933Z,4.13
2022-08-20T07:28:48.335Z,4.60
2022-08-20T07:29:43.316Z,4.33
2022-08-20T07:30:56.927Z,3.87
2022-08-20T07:31:42.361Z,3.83
2022-08-20T07:32:32.353Z,4.50
2022-08-20T07:33:09.584Z,4.40
2022-08-20T07:33:44.921Z,3.80
2022-08-20T07:34:17.261Z,5.37
2022-08-20T07:34:51.973Z,4.50
2022-08-20T07:35:27.385Z,4.27
2022-08-20T07:36:01.187Z,4.47
2022-08-20T07:36:36.229Z,3.93
2022-08-20T07:37:09.344Z,4.27
2022-08-20T07:37:44.736Z,4.43
2022-08-20T07:38:24.450Z,4.00
2022-08-20T07:38:57.109Z,4.33
2022-08-20T07:39:32.097Z,4.17
2022-08-20T07:40:05.956Z,4.80
2022-08-20T07:40:38.345Z,3.90
2022-08-20T07:41:15.116Z,4.17
2022-08-20T07:42:03.050Z,4.27
2022-08-20T07:42:35.421Z,4.10
2022-08-20T07:43:10.822Z,3.70
2022-08-20T07:43:45.746Z,4.23
2022-08-20T07:44:21.750Z,4.10
2022-08-20T07:45:03.674Z,4.23
2022-08-20T07:45:36.542Z,4.00
2022-08-20T07:46:11.816Z,4.50
2022-08-20T07:46:44.133Z,4.60
2022-08-20T07:47:21.837Z,4.23
2022-08-20T07:47:57.255Z,3.67
2022-08-20T07:48:32.074Z,3.93
2022-08-20T07:49:10.125Z,4.00
2022-08-20T07:49:42.490Z,3.87
2022-08-20T07:50:17.343Z,4.17
2022-08-20T07:50:52.329Z,3.17
2022-08-20T07:51:27.747Z,3.83
2022-08-20T07:52:00.035Z,4.00
2022-08-20T07:52:35.442Z,3.90
2022-08-20T07:53:08.274Z,3.90
2022-08-20T07:53:44.157Z,4.30
2022-08-20T07:54:16.485Z,3.77
2022-08-20T07:54:48.814Z,4.20
2022-08-20T07:55:22.206Z,3.73
2022-08-20T07:55:59.005Z,3.80
2022-08-20T07:56:32.117Z,4.67